createdAt,value
2023-03-29T00:00:51.000Z,71.28
2023-03-29T00:01:51.000Z,71.39
2023-03-29T00:02:51.000Z,71.49
2023-03-29T00:03:51.000Z,71.39
2023-03-29T00:04:51.000Z,71.39
2023-03-29T00:05:51.000Z,71.39
2023-03-29T00:06:51.000Z,71.49
2023-03-29T00:07:51.000Z,71.49
2023-03-29T00:08:51.000Z,71.39
2023-03-29T00:09:51.000Z,71.39
2023-03-29T00:10:51.000Z,71.49
2023-03-29T00:11:51.000Z,71.49
2023-03-29T00:12:51.000Z,71.39
2023-03-29T00:13:51.000Z,71.28
2023-03-29T00:14:51.000Z,71.28
2023-03-29T00:15:51.000Z,71.28
2023-03-29T00:16:51.000Z,71.39
2023-03-29T00:17:51.000Z,71.39
2023-03-29T00:18:51.000Z,71.39
2023-03-29T00:19:51.000Z,71.28
2023-03-29T00:20:51.000Z,71.18
2023-03-29T00:21:51.000Z,70.97
2023-03-29T00:22:51.000Z,71.08
2023-03-29T00:23:51.000Z,71.18
2023-03-29T00:24:51.000Z,71.28
2023-03-29T00:25:51.000Z,71.28
2023-03-29T00:26:51.000Z,71.28
2023-03-29T00:27:50.000Z,71.18
2023-03-29T00:28:50.000Z,71.28
2023-03-29T00:29:50.000Z,70.87
2023-03-29T00:30:50.000Z,70.87
2023-03-29T00:31:50.000Z,70.97
2023-03-29T00:32:50.000Z,70.97
2023-03-29T00:33:50.000Z,71.04
2023-03-29T00:34:50.000Z,71.18
2023-03-29T00:35:50.000Z,71.18
2023-03-29T00:36:50.000Z,70.97
2023-03-29T00:37:50.000Z,70.97
2023-03-29T00:38:50.000Z,70.97
2023-03-29T00:39:50.000Z,71.08
2023-03-29T00:40:50.000Z,71.18
2023-03-29T00:41:50.000Z,71.18
2023-03-29T00:42:50.000Z,70.97
2023-03-29T00:43:50.000Z,70.87
2023-03-29T00:44:50.000Z,71.08
2023-03-29T00:45:50.000Z,71.18
2023-03-29T00:46:50.000Z,71.18
2023-03-29T00:47:50.000Z,71.18
2023-03-29T00:48:50.000Z,71.28
2023-03-29T00:49:50.000Z,71.18
2023-03-29T00:50:50.000Z,71.28
2023-03-29T00:51:50.000Z,71.08
2023-03-29T00:52:50.000Z,71.28
2023-03-29T00:53:50.000Z,71.28
2023-03-29T00:54:50.000Z,71.28
2023-03-29T00:55:50.000Z,71.28
2023-03-29T00:56:50.000Z,71.39
2023-03-29T00:57:50.000Z,71.39
2023-03-29T00:58:50.000Z,70.97
2023-03-29T00:59:50.000Z,70.94
2023-03-29T01:00:50.000Z,71.04
2023-03-29T01:01:50.000Z,71.28
2023-03-29T01:02:50.000Z,71.04
2023-03-29T01:03:50.000Z,71.14
2023-03-29T01:04:50.000Z,71.18
2023-03-29T01:05:50.000Z,71.04
2023-03-29T01:06:50.000Z,71.04
2023-03-29T01:07:50.000Z,71.14
2023-03-29T01:08:50.000Z,71.04
2023-03-29T01:09:50.000Z,71.04
2023-03-29T01:10:50.000Z,71.18
2023-03-29T01:11:50.000Z,71.14
2023-03-29T01:12:50.000Z,71.08
2023-03-29T01:13:50.000Z,70.94
2023-03-29T01:14:50.000Z,70.62
2023-03-29T01:15:50.000Z,70.52
2023-03-29T01:16:50.000Z,70.42
2023-03-29T01:17:50.000Z,70.21
2023-03-29T01:18:50.000Z,70.10
2023-03-29T01:19:50.000Z,69.90
2023-03-29T01:20:50.000Z,70.21
2023-03-29T01:21:50.000Z,70.42
2023-03-29T01:22:50.000Z,70.52
2023-03-29T01:23:50.000Z,70.62
2023-03-29T01:24:50.000Z,70.52
2023-03-29T01:25:50.000Z,70.52
2023-03-29T01:26:50.000Z,70.52
2023-03-29T01:27:50.000Z,70.62
2023-03-29T01:28:50.000Z,70.62
2023-03-29T01:29:50.000Z,70.62
2023-03-29T01:30:50.000Z,70.52
2023-03-29T01:31:50.000Z,70.31
2023-03-29T01:32:50.000Z,70.21
2023-03-29T01:33:50.000Z,70.10
2023-03-29T01:34:50.000Z,69.90
2023-03-29T01:35:50.000Z,69.90
2023-03-29T01:36:50.000Z,70.00
2023-03-29T01:37:50.000Z,70.00
2023-03-29T01:38:50.000Z,69.90
2023-03-29T01:39:50.000Z,69.90
2023-03-29T01:40:50.000Z,70.10
2023-03-29T01:41:50.000Z,70.31
2023-03-29T01:42:50.000Z,70.42
2023-03-29T01:43:50.000Z,70.31
2023-03-29T01:44:50.000Z,70.31
2023-03-29T01:45:50.000Z,70.31
2023-03-29T01:46:50.000Z,70.21
2023-03-29T01:47:50.000Z,70.00
2023-03-29T01:48:50.000Z,69.90
2023-03-29T01:49:50.000Z,69.69
2023-03-29T01:50:50.000Z,69.59
2023-03-29T01:51:50.000Z,69.48
2023-03-29T01:52:50.000Z,69.48
2023-03-29T01:53:50.000Z,69.48
2023-03-29T01:54:50.000Z,69.27
2023-03-29T01:55:50.000Z,69.38
2023-03-29T01:56:50.000Z,69.17
2023-03-29T01:57:50.000Z,69.38
2023-03-29T01:58:50.000Z,69.48
2023-03-29T01:59:50.000Z,69.59
2023-03-29T02:00:50.000Z,69.59
2023-03-29T02:01:50.000Z,69.69
2023-03-29T02:02:50.000Z,69.79
2023-03-29T02:03:50.000Z,69.90
2023-03-29T02:04:50.000Z,69.27
2023-03-29T02:05:50.000Z,69.38
2023-03-29T02:06:50.000Z,69.59
2023-03-29T02:07:50.000Z,69.69
2023-03-29T02:08:50.000Z,69.38
2023-03-29T02:09:50.000Z,69.38
2023-03-29T02:10:50.000Z,69.48
2023-03-29T02:11:50.000Z,69.59
2023-03-29T02:12:50.000Z,69.59
2023-03-29T02:13:49.000Z,69.59
2023-03-29T02:14:49.000Z,69.48
2023-03-29T02:15:49.000Z,69.59
2023-03-29T02:16:49.000Z,69.59
2023-03-29T02:17:49.000Z,69.59
2023-03-29T02:18:49.000Z,69.59
2023-03-29T02:19:49.000Z,69.69
2023-03-29T02:20:49.000Z,69.59
2023-03-29T02:21:49.000Z,69.48
2023-03-29T02:22:49.000Z,69.38
2023-03-29T02:23:49.000Z,69.38
2023-03-29T02:24:49.000Z,69.48
2023-03-29T02:25:49.000Z,69.38
2023-03-29T02:26:49.000Z,69.17
2023-03-29T02:27:49.000Z,69.48
2023-03-29T02:28:49.000Z,69.59
2023-03-29T02:29:49.000Z,69.59
2023-03-29T02:30:49.000Z,69.59
2023-03-29T02:31:49.000Z,69.59
2023-03-29T02:32:49.000Z,69.69
2023-03-29T02:33:49.000Z,69.79
2023-03-29T02:34:49.000Z,69.69
2023-03-29T02:35:49.000Z,69.59
2023-03-29T02:36:49.000Z,69.59
2023-03-29T02:37:49.000Z,69.38
2023-03-29T02:38:49.000Z,69.38
2023-03-29T02:39:49.000Z,69.27
2023-03-29T02:40:49.000Z,69.17
2023-03-29T02:41:49.000Z,69.07
2023-03-29T02:42:49.000Z,69.27
2023-03-29T02:43:49.000Z,69.38
2023-03-29T02:44:49.000Z,69.38
2023-03-29T02:45:49.000Z,69.38
2023-03-29T02:46:49.000Z,69.27
2023-03-29T02:47:49.000Z,69.17
2023-03-29T02:48:49.000Z,69.17
2023-03-29T02:49:49.000Z,69.27
2023-03-29T02:50:49.000Z,69.38
2023-03-29T02:51:49.000Z,69.27
2023-03-29T02:52:49.000Z,69.38
2023-03-29T02:53:49.000Z,69.48
2023-03-29T02:54:49.000Z,69.48
2023-03-29T02:55:49.000Z,69.48
2023-03-29T02:56:49.000Z,69.48
2023-03-29T02:57:49.000Z,69.48
2023-03-29T02:58:49.000Z,69.27
2023-03-29T02:59:49.000Z,69.27
2023-03-29T03:00:49.000Z,69.38
2023-03-29T03:01:49.000Z,69.38
2023-03-29T03:02:49.000Z,69.27
2023-03-29T03:03:49.000Z,69.07
2023-03-29T03:04:49.000Z,69.07
2023-03-29T03:05:49.000Z,69.07
2023-03-29T03:06:49.000Z,69.17
2023-03-29T03:07:49.000Z,69.17
2023-03-29T03:08:49.000Z,69.27
2023-03-29T03:09:49.000Z,69.27
2023-03-29T03:10:49.000Z,69.17
2023-03-29T03:11:49.000Z,69.07
2023-03-29T03:12:49.000Z,69.07
2023-03-29T03:13:49.000Z,69.07
2023-03-29T03:14:49.000Z,69.17
2023-03-29T03:15:49.000Z,69.17
2023-03-29T03:16:49.000Z,69.17
2023-03-29T03:17:49.000Z,69.07
2023-03-29T03:18:49.000Z,69.07
2023-03-29T03:19:49.000Z,69.07
2023-03-29T03:20:49.000Z,69.04
2023-03-29T03:21:49.000Z,69.07
2023-03-29T03:22:49.000Z,69.07
2023-03-29T03:23:49.000Z,69.07
2023-03-29T03:24:49.000Z,69.17
2023-03-29T03:25:49.000Z,69.27
2023-03-29T03:26:49.000Z,69.38
2023-03-29T03:27:49.000Z,69.24
2023-03-29T03:28:49.000Z,69.14
2023-03-29T03:29:49.000Z,69.14
2023-03-29T03:30:49.000Z,69.24
2023-03-29T03:31:49.000Z,69.35
2023-03-29T03:32:49.000Z,69.04
2023-03-29T03:33:49.000Z,69.14
2023-03-29T03:34:49.000Z,69.35
2023-03-29T03:35:49.000Z,69.35
2023-03-29T03:36:49.000Z,69.35
2023-03-29T03:37:49.000Z,69.35
2023-03-29T03:38:49.000Z,69.45
2023-03-29T03:39:49.000Z,69.45
2023-03-29T03:40:49.000Z,69.45
2023-03-29T03:41:49.000Z,69.14
2023-03-29T03:42:49.000Z,69.24
2023-03-29T03:43:49.000Z,69.35
2023-03-29T03:44:49.000Z,69.45
2023-03-29T03:45:49.000Z,69.45
2023-03-29T03:46:49.000Z,69.56
2023-03-29T03:47:49.000Z,69.45
2023-03-29T03:48:49.000Z,69.56
2023-03-29T03:49:49.000Z,69.56
2023-03-29T03:50:49.000Z,69.56
2023-03-29T03:51:49.000Z,69.56
2023-03-29T03:52:49.000Z,69.56
2023-03-29T03:53:49.000Z,69.45
2023-03-29T03:54:49.000Z,69.35
2023-03-29T03:55:49.000Z,69.24
2023-03-29T03:56:49.000Z,69.21
2023-03-29T03:57:49.000Z,69.32
2023-03-29T03:58:48.000Z,69.32
2023-03-29T03:59:48.000Z,69.21
2023-03-29T04:00:48.000Z,69.21
2023-03-29T04:01:48.000Z,69.21
2023-03-29T04:02:48.000Z,69.32
2023-03-29T04:03:48.000Z,69.11
2023-03-29T04:04:48.000Z,69.11
2023-03-29T04:05:48.000Z,69.11
2023-03-29T04:06:48.000Z,69.11
2023-03-29T04:07:48.000Z,69.11
2023-03-29T04:08:48.000Z,69.01
2023-03-29T04:09:48.000Z,68.25
2023-03-29T04:10:48.000Z,68.46
2023-03-29T04:11:48.000Z,68.66
2023-03-29T04:12:48.000Z,68.15
2023-03-29T04:13:48.000Z,68.25
2023-03-29T04:14:48.000Z,68.35
2023-03-29T04:15:48.000Z,68.25
2023-03-29T04:16:48.000Z,68.15
2023-03-29T04:17:48.000Z,68.04
2023-03-29T04:18:48.000Z,68.15
2023-03-29T04:19:48.000Z,68.25
2023-03-29T04:20:48.000Z,68.35
2023-03-29T04:21:48.000Z,68.35
2023-03-29T04:22:48.000Z,68.46
2023-03-29T04:23:48.000Z,68.66
2023-03-29T04:24:48.000Z,68.87
2023-03-29T04:25:48.000Z,68.98
2023-03-29T04:26:48.000Z,69.08
2023-03-29T04:27:48.000Z,68.63
2023-03-29T04:28:48.000Z,68.12
2023-03-29T04:29:48.000Z,68.32
2023-03-29T04:30:48.000Z,68.53
2023-03-29T04:31:48.000Z,68.63
2023-03-29T04:32:48.000Z,68.74
2023-03-29T04:33:48.000Z,68.63
2023-03-29T04:34:48.000Z,68.63
2023-03-29T04:35:48.000Z,68.74
2023-03-29T04:36:48.000Z,68.74
2023-03-29T04:37:48.000Z,68.63
2023-03-29T04:38:48.000Z,68.01
2023-03-29T04:39:48.000Z,67.91
2023-03-29T04:40:48.000Z,68.32
2023-03-29T04:41:48.000Z,68.53
2023-03-29T04:42:48.000Z,68.53
2023-03-29T04:43:48.000Z,68.53
2023-03-29T04:44:48.000Z,68.43
2023-03-29T04:45:48.000Z,68.63
2023-03-29T04:46:48.000Z,68.74
2023-03-29T04:47:48.000Z,68.94
2023-03-29T04:48:48.000Z,69.04
2023-03-29T04:49:48.000Z,69.25
2023-03-29T04:50:48.000Z,69.04
2023-03-29T04:51:48.000Z,69.22
2023-03-29T04:52:48.000Z,69.46
2023-03-29T04:53:48.000Z,69.67
2023-03-29T04:54:48.000Z,69.46
2023-03-29T04:55:48.000Z,69.53
2023-03-29T04:56:48.000Z,69.67
2023-03-29T04:57:48.000Z,69.77
2023-03-29T04:58:48.000Z,69.64
2023-03-29T04:59:48.000Z,69.74
2023-03-29T05:00:48.000Z,70.05
2023-03-29T05:01:48.000Z,70.15
2023-03-29T05:02:48.000Z,70.15
2023-03-29T05:03:48.000Z,69.95
2023-03-29T05:04:48.000Z,70.05
2023-03-29T05:05:48.000Z,70.15
2023-03-29T05:06:48.000Z,70.26
2023-03-29T05:07:48.000Z,70.36
2023-03-29T05:08:48.000Z,70.57
2023-03-29T05:09:48.000Z,70.47
2023-03-29T05:10:48.000Z,70.57
2023-03-29T05:11:48.000Z,70.57
2023-03-29T05:12:48.000Z,70.67
2023-03-29T05:13:48.000Z,70.77
2023-03-29T05:14:48.000Z,70.77
2023-03-29T05:15:48.000Z,70.77
2023-03-29T05:16:48.000Z,70.67
2023-03-29T05:17:48.000Z,70.67
2023-03-29T05:18:48.000Z,70.67
2023-03-29T05:19:48.000Z,70.77
2023-03-29T05:20:48.000Z,70.87
2023-03-29T05:21:48.000Z,70.98
2023-03-29T05:22:48.000Z,70.98
2023-03-29T05:23:48.000Z,70.77
2023-03-29T05:24:48.000Z,70.98
2023-03-29T05:25:48.000Z,71.08
2023-03-29T05:26:48.000Z,71.29
2023-03-29T05:27:48.000Z,71.29
2023-03-29T05:28:48.000Z,71.29
2023-03-29T05:29:48.000Z,71.08
2023-03-29T05:30:48.000Z,70.98
2023-03-29T05:31:48.000Z,70.98
2023-03-29T05:32:48.000Z,70.98
2023-03-29T05:33:48.000Z,70.98
2023-03-29T05:34:48.000Z,70.98
2023-03-29T05:35:48.000Z,70.87
2023-03-29T05:36:48.000Z,70.74
2023-03-29T05:37:48.000Z,70.64
2023-03-29T05:38:48.000Z,70.43
2023-03-29T05:39:48.000Z,70.43
2023-03-29T05:40:48.000Z,70.22
2023-03-29T05:41:48.000Z,70.12
2023-03-29T05:42:48.000Z,70.12
2023-03-29T05:43:47.000Z,70.12
2023-03-29T05:44:47.000Z,70.22
2023-03-29T05:45:47.000Z,70.32
2023-03-29T05:46:47.000Z,70.01
2023-03-29T05:47:47.000Z,70.01
2023-03-29T05:48:47.000Z,69.92
2023-03-29T05:49:47.000Z,69.92
2023-03-29T05:50:47.000Z,69.92
2023-03-29T05:51:47.000Z,69.81
2023-03-29T05:52:47.000Z,69.92
2023-03-29T05:53:47.000Z,69.81
2023-03-29T05:54:47.000Z,69.81
2023-03-29T05:55:47.000Z,69.71
2023-03-29T05:56:47.000Z,69.81
2023-03-29T05:57:47.000Z,69.26
2023-03-29T05:57:47.000Z,69.26
2023-03-29T05:58:47.000Z,69.26
2023-03-29T05:58:47.000Z,69.26
2023-03-29T05:59:47.000Z,69.57
2023-03-29T05:59:47.000Z,69.57
2023-03-29T06:00:47.000Z,69.47
2023-03-29T06:00:47.000Z,69.47
2023-03-29T06:01:47.000Z,69.26
2023-03-29T06:01:47.000Z,69.26
2023-03-29T06:02:47.000Z,69.37
2023-03-29T06:03:47.000Z,69.47
2023-03-29T06:04:47.000Z,69.57
2023-03-29T06:05:47.000Z,68.95
2023-03-29T06:06:47.000Z,69.16
2023-03-29T06:07:47.000Z,69.47
2023-03-29T06:08:47.000Z,69.43
2023-03-29T06:09:47.000Z,69.43
2023-03-29T06:10:47.000Z,69.64
2023-03-29T06:11:47.000Z,69.54
2023-03-29T06:12:47.000Z,69.12
2023-03-29T06:13:47.000Z,69.02
2023-03-29T06:14:47.000Z,69.33
2023-03-29T06:15:47.000Z,69.12
2023-03-29T06:16:47.000Z,69.43
2023-03-29T06:17:47.000Z,69.74
2023-03-29T06:18:47.000Z,69.95
2023-03-29T06:19:47.000Z,70.06
2023-03-29T06:20:47.000Z,70.26
2023-03-29T06:21:47.000Z,69.74
2023-03-29T06:22:47.000Z,69.74
2023-03-29T06:23:47.000Z,69.85
2023-03-29T06:24:47.000Z,69.02
2023-03-29T06:25:47.000Z,69.43
2023-03-29T06:26:47.000Z,69.85
2023-03-29T06:27:47.000Z,69.95
2023-03-29T06:28:47.000Z,70.26
2023-03-29T06:29:47.000Z,70.26
2023-03-29T06:30:47.000Z,70.03
2023-03-29T06:31:47.000Z,70.12
2023-03-29T06:32:47.000Z,70.33
2023-03-29T06:33:47.000Z,70.54
2023-03-29T06:34:47.000Z,70.54
2023-03-29T06:35:47.000Z,70.75
2023-03-29T06:36:47.000Z,70.85
2023-03-29T06:37:47.000Z,70.64
2023-03-29T06:38:47.000Z,70.43
2023-03-29T06:39:47.000Z,70.33
2023-03-29T06:40:47.000Z,70.64
2023-03-29T06:41:47.000Z,70.85
2023-03-29T06:42:47.000Z,70.72
2023-03-29T06:43:47.000Z,70.92
2023-03-29T06:44:47.000Z,70.92
2023-03-29T06:45:47.000Z,70.92
2023-03-29T06:46:47.000Z,70.92
2023-03-29T06:47:47.000Z,71.12
2023-03-29T06:48:47.000Z,70.72
2023-03-29T06:49:47.000Z,71.02
2023-03-29T06:50:47.000Z,71.33
2023-03-29T06:51:47.000Z,71.54
2023-03-29T06:52:47.000Z,71.85
2023-03-29T06:53:47.000Z,71.75
2023-03-29T06:54:47.000Z,71.85
2023-03-29T06:55:47.000Z,71.75
2023-03-29T06:56:47.000Z,70.99
2023-03-29T06:57:47.000Z,70.99
2023-03-29T06:58:47.000Z,71.09
2023-03-29T06:59:47.000Z,70.99
2023-03-29T07:00:47.000Z,71.51
2023-03-29T07:01:47.000Z,71.71
2023-03-29T07:02:47.000Z,71.92
2023-03-29T07:03:47.000Z,71.30
2023-03-29T07:04:47.000Z,71.61
2023-03-29T07:05:47.000Z,71.51
2023-03-29T07:06:47.000Z,71.81
2023-03-29T07:07:47.000Z,71.99
2023-03-29T07:08:47.000Z,72.19
2023-03-29T07:09:47.000Z,72.40
2023-03-29T07:10:47.000Z,72.19
2023-03-29T07:11:47.000Z,71.99
2023-03-29T07:12:47.000Z,71.99
2023-03-29T07:13:47.000Z,71.99
2023-03-29T07:14:47.000Z,71.78
2023-03-29T07:15:47.000Z,71.37
2023-03-29T07:16:47.000Z,71.26
2023-03-29T07:17:47.000Z,71.85
2023-03-29T07:18:47.000Z,72.06
2023-03-29T07:19:47.000Z,72.06
2023-03-29T07:20:47.000Z,72.16
2023-03-29T07:21:47.000Z,71.95
2023-03-29T07:22:47.000Z,71.44
2023-03-29T07:23:47.000Z,71.34
2023-03-29T07:24:47.000Z,71.85
2023-03-29T07:25:47.000Z,71.92
2023-03-29T07:26:47.000Z,72.03
2023-03-29T07:27:47.000Z,71.00
2023-03-29T07:28:46.000Z,71.51
2023-03-29T07:29:46.000Z,71.51
2023-03-29T07:30:46.000Z,70.68
2023-03-29T07:31:46.000Z,71.72
2023-03-29T07:32:46.000Z,71.82
2023-03-29T07:33:46.000Z,70.89
2023-03-29T07:34:46.000Z,71.61
2023-03-29T07:35:46.000Z,71.92
2023-03-29T07:36:46.000Z,71.20
2023-03-29T07:37:46.000Z,71.41
2023-03-29T07:38:46.000Z,71.10
2023-03-29T07:39:46.000Z,71.69
2023-03-29T07:40:46.000Z,71.72
2023-03-29T07:41:46.000Z,70.86
2023-03-29T07:42:46.000Z,71.06
2023-03-29T07:43:46.000Z,71.37
2023-03-29T07:44:46.000Z,71.89
2023-03-29T07:45:46.000Z,71.58
2023-03-29T07:46:46.000Z,71.17
2023-03-29T07:47:46.000Z,71.78
2023-03-29T07:48:46.000Z,72.09
2023-03-29T07:49:46.000Z,72.09
2023-03-29T07:50:46.000Z,71.58
2023-03-29T07:51:46.000Z,70.14
2023-03-29T07:52:46.000Z,70.76
2023-03-29T07:53:46.000Z,71.27
2023-03-29T07:54:46.000Z,71.37
2023-03-29T07:55:46.000Z,71.27
2023-03-29T07:56:46.000Z,71.44
2023-03-29T07:57:46.000Z,71.34
2023-03-29T07:58:46.000Z,71.55
2023-03-29T07:59:46.000Z,71.44
2023-03-29T08:00:46.000Z,70.52
2023-03-29T08:01:46.000Z,70.52
2023-03-29T08:02:46.000Z,70.93
2023-03-29T08:03:46.000Z,71.03
2023-03-29T08:04:46.000Z,71.03
2023-03-29T08:05:46.000Z,70.83
2023-03-29T08:06:46.000Z,70.42
2023-03-29T08:07:46.000Z,69.56
2023-03-29T08:08:46.000Z,70.21
2023-03-29T08:09:46.000Z,70.79
2023-03-29T08:10:46.000Z,70.07
2023-03-29T08:11:46.000Z,69.97
2023-03-29T08:12:46.000Z,70.18
2023-03-29T08:13:46.000Z,70.59
2023-03-29T08:14:46.000Z,71.00
2023-03-29T08:15:46.000Z,70.59
2023-03-29T08:16:46.000Z,70.59
2023-03-29T08:17:46.000Z,70.79
2023-03-29T08:18:46.000Z,69.94
2023-03-29T08:19:46.000Z,69.63
2023-03-29T08:20:46.000Z,70.14
2023-03-29T08:21:46.000Z,68.91
2023-03-29T08:22:46.000Z,69.22
2023-03-29T08:23:46.000Z,69.12
2023-03-29T08:24:46.000Z,69.32
2023-03-29T08:25:46.000Z,69.60
2023-03-29T08:26:46.000Z,69.60
2023-03-29T08:27:46.000Z,69.29
2023-03-29T08:28:46.000Z,68.26
2023-03-29T08:29:46.000Z,69.18
2023-03-29T08:30:46.000Z,69.09
2023-03-29T08:31:46.000Z,68.37
2023-03-29T08:32:46.000Z,68.33
2023-03-29T08:33:46.000Z,67.92
2023-03-29T08:34:46.000Z,67.82
2023-03-29T08:35:46.000Z,68.13
2023-03-29T08:36:46.000Z,67.41
2023-03-29T08:37:46.000Z,68.13
2023-03-29T08:38:46.000Z,67.41
2023-03-29T08:39:46.000Z,67.61
2023-03-29T08:40:46.000Z,67.82
2023-03-29T08:41:46.000Z,67.17
2023-03-29T08:42:46.000Z,67.99
2023-03-29T08:43:46.000Z,67.89
2023-03-29T08:44:46.000Z,68.19
2023-03-29T08:45:46.000Z,67.99
2023-03-29T08:46:46.000Z,67.07
2023-03-29T08:47:46.000Z,66.66
2023-03-29T08:48:46.000Z,66.96
2023-03-29T08:49:46.000Z,67.48
2023-03-29T08:50:46.000Z,67.27
2023-03-29T08:51:46.000Z,66.96
2023-03-29T08:52:46.000Z,67.27
2023-03-29T08:53:46.000Z,67.48
2023-03-29T08:54:46.000Z,66.76
2023-03-29T08:55:46.000Z,66.66
2023-03-29T08:56:46.000Z,66.66
2023-03-29T08:57:46.000Z,66.35
2023-03-29T08:58:46.000Z,65.94
2023-03-29T08:59:46.000Z,66.45
2023-03-29T09:00:46.000Z,66.35
2023-03-29T09:01:46.000Z,66.55
2023-03-29T09:02:46.000Z,67.07
2023-03-29T09:03:46.000Z,67.38
2023-03-29T09:04:46.000Z,66.86
2023-03-29T09:05:46.000Z,67.27
2023-03-29T09:06:46.000Z,66.86
2023-03-29T09:07:46.000Z,66.73
2023-03-29T09:08:46.000Z,66.11
2023-03-29T09:09:46.000Z,66.63
2023-03-29T09:10:46.000Z,67.14
2023-03-29T09:11:45.000Z,65.91
2023-03-29T09:12:45.000Z,66.01
2023-03-29T09:13:45.000Z,66.22
2023-03-29T09:14:45.000Z,66.63
2023-03-29T09:15:45.000Z,66.70
2023-03-29T09:16:45.000Z,65.88
2023-03-29T09:17:45.000Z,66.39
2023-03-29T09:18:45.000Z,66.90
2023-03-29T09:19:45.000Z,66.39
2023-03-29T09:20:45.000Z,66.19
2023-03-29T09:21:45.000Z,65.36
2023-03-29T09:22:45.000Z,65.16
2023-03-29T09:23:45.000Z,65.16
2023-03-29T09:24:45.000Z,65.67
2023-03-29T09:25:45.000Z,65.67
2023-03-29T09:26:45.000Z,65.36
2023-03-29T09:27:45.000Z,64.75
2023-03-29T09:28:45.000Z,65.36
2023-03-29T09:29:45.000Z,65.16
2023-03-29T09:30:45.000Z,64.72
2023-03-29T09:31:45.000Z,65.03
2023-03-29T09:32:45.000Z,65.44
2023-03-29T09:33:45.000Z,64.92
2023-03-29T09:34:45.000Z,65.23
2023-03-29T09:35:45.000Z,65.74
2023-03-29T09:36:45.000Z,65.74
2023-03-29T09:37:45.000Z,64.59
2023-03-29T09:38:45.000Z,63.87
2023-03-29T09:39:45.000Z,64.38
2023-03-29T09:40:45.000Z,64.17
2023-03-29T09:41:45.000Z,63.97
2023-03-29T09:42:45.000Z,64.28
2023-03-29T09:43:45.000Z,64.45
2023-03-29T09:44:45.000Z,63.22
2023-03-29T09:45:45.000Z,63.53
2023-03-29T09:46:45.000Z,63.94
2023-03-29T09:47:45.000Z,64.25
2023-03-29T09:48:45.000Z,63.50
2023-03-29T09:49:45.000Z,63.50
2023-03-29T09:50:45.000Z,64.32
2023-03-29T09:51:45.000Z,63.60
2023-03-29T09:52:45.000Z,62.78
2023-03-29T09:53:45.000Z,63.47
2023-03-29T09:54:45.000Z,63.47
2023-03-29T09:55:45.000Z,63.57
2023-03-29T09:56:45.000Z,63.17
2023-03-29T09:57:45.000Z,63.98
2023-03-29T09:58:45.000Z,63.95
2023-03-29T09:59:45.000Z,64.26
2023-03-29T10:00:45.000Z,63.03
2023-03-29T10:01:45.000Z,62.18
2023-03-29T10:02:45.000Z,62.39
2023-03-29T10:03:45.000Z,61.98
2023-03-29T10:04:45.000Z,62.08
2023-03-29T10:05:45.000Z,62.05
2023-03-29T10:06:45.000Z,62.77
2023-03-29T10:07:45.000Z,61.24
2023-03-29T10:08:45.000Z,60.80
2023-03-29T10:09:45.000Z,61.00
2023-03-29T10:10:45.000Z,60.39
2023-03-29T10:11:45.000Z,60.57
2023-03-29T10:12:45.000Z,61.18
2023-03-29T10:13:45.000Z,59.34
2023-03-29T10:14:45.000Z,59.44
2023-03-29T10:15:45.000Z,58.70
2023-03-29T10:16:45.000Z,57.68
2023-03-29T10:17:45.000Z,58.91
2023-03-29T10:18:45.000Z,58.91
2023-03-29T10:19:45.000Z,59.11
2023-03-29T10:20:45.000Z,59.82
2023-03-29T10:21:45.000Z,58.47
2023-03-29T10:22:45.000Z,58.37
2023-03-29T10:23:45.000Z,59.18
2023-03-29T10:24:45.000Z,59.39
2023-03-29T10:25:45.000Z,59.08
2023-03-29T10:26:45.000Z,58.54
2023-03-29T10:27:45.000Z,58.03
2023-03-29T10:28:45.000Z,57.93
2023-03-29T10:29:45.000Z,56.81
2023-03-29T10:30:45.000Z,56.91
2023-03-29T10:31:45.000Z,57.21
2023-03-29T10:32:45.000Z,57.52
2023-03-29T10:33:45.000Z,57.21
2023-03-29T10:34:45.000Z,57.52
2023-03-29T10:35:45.000Z,57.01
2023-03-29T10:36:45.000Z,57.21
2023-03-29T10:37:45.000Z,57.42
2023-03-29T10:38:45.000Z,56.78
2023-03-29T10:39:45.000Z,57.70
2023-03-29T10:40:45.000Z,56.37
2023-03-29T10:41:45.000Z,56.99
2023-03-29T10:42:45.000Z,56.78
2023-03-29T10:43:45.000Z,56.88
2023-03-29T10:44:45.000Z,56.58
2023-03-29T10:45:45.000Z,55.15
2023-03-29T10:46:45.000Z,55.26
2023-03-29T10:47:45.000Z,55.26
2023-03-29T10:48:45.000Z,55.56
2023-03-29T10:49:45.000Z,55.97
2023-03-29T10:50:45.000Z,55.87
2023-03-29T10:51:45.000Z,56.58
2023-03-29T10:52:51.000Z,55.35
2023-03-29T10:53:44.000Z,56.17
2023-03-29T10:54:44.000Z,56.58
2023-03-29T10:55:44.000Z,55.97
2023-03-29T10:56:44.000Z,55.76
2023-03-29T10:57:44.000Z,55.76
2023-03-29T10:58:44.000Z,56.27
2023-03-29T10:59:44.000Z,56.48
2023-03-29T11:00:44.000Z,56.48
2023-03-29T11:01:44.000Z,56.78
2023-03-29T11:02:44.000Z,57.29
2023-03-29T11:03:44.000Z,56.78
2023-03-29T11:04:44.000Z,55.97
2023-03-29T11:05:44.000Z,56.07
2023-03-29T11:06:44.000Z,56.68
2023-03-29T11:07:44.000Z,56.15
2023-03-29T11:08:44.000Z,55.94
2023-03-29T11:09:44.000Z,56.85
2023-03-29T11:10:44.000Z,56.04
2023-03-29T11:11:44.000Z,55.84
2023-03-29T11:12:44.000Z,56.24
2023-03-29T11:13:44.000Z,56.12
2023-03-29T11:14:44.000Z,55.71
2023-03-29T11:15:44.000Z,54.77
2023-03-29T11:16:44.000Z,55.18
2023-03-29T11:17:44.000Z,54.77
2023-03-29T11:18:44.000Z,55.25
2023-03-29T11:19:44.000Z,56.07
2023-03-29T11:20:44.000Z,55.76
2023-03-29T11:21:44.000Z,54.64
2023-03-29T11:22:44.000Z,55.25
2023-03-29T11:23:44.000Z,55.15
2023-03-29T11:24:44.000Z,54.33
2023-03-29T11:25:44.000Z,53.93
2023-03-29T11:26:44.000Z,54.54
2023-03-29T11:27:44.000Z,55.05
2023-03-29T11:28:44.000Z,55.35
2023-03-29T11:29:44.000Z,55.33
2023-03-29T11:30:44.000Z,56.24
2023-03-29T11:31:44.000Z,54.92
2023-03-29T11:32:44.000Z,52.86
2023-03-29T11:33:44.000Z,54.26
2023-03-29T11:34:44.000Z,54.13
2023-03-29T11:35:44.000Z,53.42
2023-03-29T11:36:44.000Z,51.57
2023-03-29T11:37:44.000Z,49.41
2023-03-29T11:38:44.000Z,50.93
2023-03-29T11:39:44.000Z,50.84
2023-03-29T11:40:44.000Z,49.49
2023-03-29T11:41:44.000Z,49.29
2023-03-29T11:42:44.000Z,50.31
2023-03-29T11:43:44.000Z,49.29
2023-03-29T11:44:44.000Z,49.59
2023-03-29T11:45:44.000Z,49.49
2023-03-29T11:46:44.000Z,49.08
2023-03-29T11:47:44.000Z,49.29
2023-03-29T11:48:44.000Z,49.19
2023-03-29T11:49:44.000Z,50.71
2023-03-29T11:50:44.000Z,49.01
2023-03-29T11:51:44.000Z,49.31
2023-03-29T11:52:44.000Z,50.35
2023-03-29T11:53:44.000Z,50.35
2023-03-29T11:54:44.000Z,51.87
2023-03-29T11:55:44.000Z,51.46
2023-03-29T11:56:44.000Z,51.06
2023-03-29T11:57:44.000Z,51.18
2023-03-29T11:58:44.000Z,52.40
2023-03-29T11:59:44.000Z,51.79
2023-03-29T12:00:44.000Z,52.20
2023-03-29T12:01:44.000Z,52.40
2023-03-29T12:02:44.000Z,52.00
2023-03-29T12:03:44.000Z,52.00
2023-03-29T12:04:44.000Z,51.90
2023-03-29T12:05:44.000Z,52.40
2023-03-29T12:06:44.000Z,51.39
2023-03-29T12:07:44.000Z,53.02
2023-03-29T12:08:44.000Z,52.51
2023-03-29T12:09:44.000Z,52.40
2023-03-29T12:10:44.000Z,52.81
2023-03-29T12:11:44.000Z,54.33
2023-03-29T12:12:44.000Z,53.91
2023-03-29T12:13:44.000Z,52.48
2023-03-29T12:14:44.000Z,52.28
2023-03-29T12:15:44.000Z,52.89
2023-03-29T12:16:44.000Z,52.58
2023-03-29T12:17:44.000Z,52.48
2023-03-29T12:18:44.000Z,51.75
2023-03-29T12:19:44.000Z,52.86
2023-03-29T12:20:44.000Z,51.62
2023-03-29T12:21:44.000Z,52.41
2023-03-29T12:22:44.000Z,50.68
2023-03-29T12:23:44.000Z,51.07
2023-03-29T12:24:44.000Z,50.74
2023-03-29T12:25:44.000Z,49.73
2023-03-29T12:26:44.000Z,48.91
2023-03-29T12:27:44.000Z,49.22
2023-03-29T12:28:44.000Z,49.80
2023-03-29T12:29:44.000Z,48.28
2023-03-29T12:30:44.000Z,48.69
2023-03-29T12:31:44.000Z,49.90
2023-03-29T12:32:44.000Z,49.52
2023-03-29T12:33:43.000Z,49.73
2023-03-29T12:34:43.000Z,50.23
2023-03-29T12:35:43.000Z,49.52
2023-03-29T12:36:43.000Z,49.42
2023-03-29T12:37:43.000Z,49.52
2023-03-29T12:38:43.000Z,48.82
2023-03-29T12:39:43.000Z,49.44
2023-03-29T12:40:43.000Z,48.94
2023-03-29T12:41:43.000Z,48.74
2023-03-29T12:42:43.000Z,50.76
2023-03-29T12:43:43.000Z,49.44
2023-03-29T12:44:43.000Z,50.96
2023-03-29T12:45:43.000Z,50.26
2023-03-29T12:46:43.000Z,50.46
2023-03-29T12:47:43.000Z,50.26